sensor_id;sensor_type;location;lat;lon;timestamp;pressure;altitude;pressure_sealevel;temperature
7389;BMP180;3735;50.136;11.062;2023-12-20T00:01:38;97943.00;;;4.50
7389;BMP180;3735;50.136;11.062;2023-12-20T00:04:04;97940.00;;;4.50
7389;BMP180;3735;50.136;11.062;2023-12-20T00:06:30;97933.00;;;4.50
7389;BMP180;3735;50.136;11.062;2023-12-20T00:08:56;97938.00;;;4.50
7389;BMP180;3735;50.136;11.062;2023-12-20T00:11:24;97921.00;;;4.50
7389;BMP180;3735;50.136;11.062;2023-12-20T00:13:50;97913.00;;;4.50
7389;BMP180;3735;50.136;11.062;2023-12-20T00:16:15;97926.00;;;4.50
7389;BMP180;3735;50.136;11.062;2023-12-20T00:18:41;97918.00;;;4.60
7389;BMP180;3735;50.136;11.062;2023-12-20T00:21:07;97920.00;;;4.60
7389;BMP180;3735;50.136;11.062;2023-12-20T00:23:33;97921.00;;;4.60
7389;BMP180;3735;50.136;11.062;2023-12-20T00:25:59;97915.00;;;4.60
7389;BMP180;3735;50.136;11.062;2023-12-20T00:28:25;97910.00;;;4.70
7389;BMP180;3735;50.136;11.062;2023-12-20T00:30:50;97917.00;;;4.60
7389;BMP180;3735;50.136;11.062;2023-12-20T00:33:16;97907.00;;;4.60
7389;BMP180;3735;50.136;11.062;2023-12-20T00:35:42;97922.00;;;4.60
7389;BMP180;3735;50.136;11.062;2023-12-20T00:38:08;97915.00;;;4.60
7389;BMP180;3735;50.136;11.062;2023-12-20T00:40:34;97917.00;;;4.60
7389;BMP180;3735;50.136;11.062;2023-12-20T00:43:03;97922.00;;;4.60
7389;BMP180;3735;50.136;11.062;2023-12-20T00:45:29;97918.00;;;4.60
7389;BMP180;3735;50.136;11.062;2023-12-20T00:47:55;97916.00;;;4.70
7389;BMP180;3735;50.136;11.062;2023-12-20T00:50:20;97904.00;;;4.70
7389;BMP180;3735;50.136;11.062;2023-12-20T00:52:48;97918.00;;;4.60
7389;BMP180;3735;50.136;11.062;2023-12-20T00:55:13;97902.00;;;4.60
7389;BMP180;3735;50.136;11.062;2023-12-20T00:57:39;97921.00;;;4.60
7389;BMP180;3735;50.136;11.062;2023-12-20T01:00:06;97914.00;;;4.60
7389;BMP180;3735;50.136;11.062;2023-12-20T01:02:32;97913.00;;;4.60
7389;BMP180;3735;50.136;11.062;2023-12-20T01:04:58;97901.00;;;4.60
7389;BMP180;3735;50.136;11.062;2023-12-20T01:07:23;97902.00;;;4.60
7389;BMP180;3735;50.136;11.062;2023-12-20T01:09:49;97897.00;;;4.70
7389;BMP180;3735;50.136;11.062;2023-12-20T01:12:15;97889.00;;;4.60
7389;BMP180;3735;50.136;11.062;2023-12-20T01:14:41;97887.00;;;4.60
7389;BMP180;3735;50.136;11.062;2023-12-20T01:17:07;97885.00;;;4.70
7389;BMP180;3735;50.136;11.062;2023-12-20T01:19:32;97868.00;;;4.70
7389;BMP180;3735;50.136;11.062;2023-12-20T01:21:58;97884.00;;;4.70
7389;BMP180;3735;50.136;11.062;2023-12-20T01:24:24;97884.00;;;4.60
7389;BMP180;3735;50.136;11.062;2023-12-20T01:26:50;97870.00;;;4.70
7389;BMP180;3735;50.136;11.062;2023-12-20T01:29:16;97870.00;;;4.60
7389;BMP180;3735;50.136;11.062;2023-12-20T01:31:42;97857.00;;;4.70
7389;BMP180;3735;50.136;11.062;2023-12-20T01:34:07;97859.00;;;4.60
7389;BMP180;3735;50.136;11.062;2023-12-20T01:36:33;97847.00;;;4.70
7389;BMP180;3735;50.136;11.062;2023-12-20T01:38:59;97856.00;;;4.60
7389;BMP180;3735;50.136;11.062;2023-12-20T01:41:25;97855.00;;;4.70
7389;BMP180;3735;50.136;11.062;2023-12-20T01:43:51;97862.00;;;4.70
7389;BMP180;3735;50.136;11.062;2023-12-20T01:46:20;97856.00;;;4.70
7389;BMP180;3735;50.136;11.062;2023-12-20T01:48:48;97853.00;;;4.60
7389;BMP180;3735;50.136;11.062;2023-12-20T01:51:14;97855.00;;;4.70
7389;BMP180;3735;50.136;11.062;2023-12-20T01:53:42;97845.00;;;4.70
7389;BMP180;3735;50.136;11.062;2023-12-20T01:56:08;97849.00;;;4.70
7389;BMP180;3735;50.136;11.062;2023-12-20T01:58:44;97851.00;;;4.60
7389;BMP180;3735;50.136;11.062;2023-12-20T02:01:11;97850.00;;;4.60
7389;BMP180;3735;50.136;11.062;2023-12-20T02:03:37;97853.00;;;4.70
7389;BMP180;3735;50.136;11.062;2023-12-20T02:06:05;97851.00;;;4.60
7389;BMP180;3735;50.136;11.062;2023-12-20T02:08:31;97855.00;;;4.60
7389;BMP180;3735;50.136;11.062;2023-12-20T02:10:58;97856.00;;;4.60
7389;BMP180;3735;50.136;11.062;2023-12-20T02:13:24;97846.00;;;4.60
7389;BMP180;3735;50.136;11.062;2023-12-20T02:15:50;97852.00;;;4.60
7389;BMP180;3735;50.136;11.062;2023-12-20T02:18:16;97844.00;;;4.60
7389;BMP180;3735;50.136;11.062;2023-12-20T02:20:42;97837.00;;;4.60
7389;BMP180;3735;50.136;11.062;2023-12-20T02:23:08;97838.00;;;4.60
7389;BMP180;3735;50.136;11.062;2023-12-20T02:25:34;97839.00;;;4.50
7389;BMP180;3735;50.136;11.062;2023-12-20T02:28:01;97839.00;;;4.60
7389;BMP180;3735;50.136;11.062;2023-12-20T02:30:27;97833.00;;;4.50
7389;BMP180;3735;50.136;11.062;2023-12-20T02:32:53;97842.00;;;4.50
7389;BMP180;3735;50.136;11.062;2023-12-20T02:35:19;97837.00;;;4.50
7389;BMP180;3735;50.136;11.062;2023-12-20T02:37:45;97842.00;;;4.50
7389;BMP180;3735;50.136;11.062;2023-12-20T02:40:11;97834.00;;;4.50
7389;BMP180;3735;50.136;11.062;2023-12-20T02:42:37;97846.00;;;4.50
7389;BMP180;3735;50.136;11.062;2023-12-20T02:45:03;97829.00;;;4.50
7389;BMP180;3735;50.136;11.062;2023-12-20T02:47:29;97841.00;;;4.50
7389;BMP180;3735;50.136;11.062;2023-12-20T02:49:56;97830.00;;;4.50
7389;BMP180;3735;50.136;11.062;2023-12-20T02:52:24;97843.00;;;4.50
7389;BMP180;3735;50.136;11.062;2023-12-20T02:54:50;97841.00;;;4.40
7389;BMP180;3735;50.136;11.062;2023-12-20T02:57:16;97850.00;;;4.40
7389;BMP180;3735;50.136;11.062;2023-12-20T02:59:41;97849.00;;;4.40
7389;BMP180;3735;50.136;11.062;2023-12-20T03:02:07;97841.00;;;4.40
7389;BMP180;3735;50.136;11.062;2023-12-20T03:04:33;97840.00;;;4.40
7389;BMP180;3735;50.136;11.062;2023-12-20T03:06:59;97851.00;;;4.40
7389;BMP180;3735;50.136;11.062;2023-12-20T03:09:24;97847.00;;;4.40
7389;BMP180;3735;50.136;11.062;2023-12-20T03:11:50;97856.00;;;4.40
7389;BMP180;3735;50.136;11.062;2023-12-20T03:14:16;97848.00;;;4.30
7389;BMP180;3735;50.136;11.062;2023-12-20T03:16:47;97844.00;;;4.40
7389;BMP180;3735;50.136;11.062;2023-12-20T03:19:12;97833.00;;;4.40
7389;BMP180;3735;50.136;11.062;2023-12-20T03:21:38;97846.00;;;4.40
7389;BMP180;3735;50.136;11.062;2023-12-20T03:24:04;97856.00;;;4.30
7389;BMP180;3735;50.136;11.062;2023-12-20T03:26:30;97858.00;;;4.30
7389;BMP180;3735;50.136;11.062;2023-12-20T03:28:56;97849.00;;;4.30
7389;BMP180;3735;50.136;11.062;2023-12-20T03:31:22;97843.00;;;4.30
7389;BMP180;3735;50.136;11.062;2023-12-20T03:33:48;97849.00;;;4.30
7389;BMP180;3735;50.136;11.062;2023-12-20T03:36:14;97853.00;;;4.30
7389;BMP180;3735;50.136;11.062;2023-12-20T03:38:40;97844.00;;;4.30
7389;BMP180;3735;50.136;11.062;2023-12-20T03:41:07;97849.00;;;4.30
7389;BMP180;3735;50.136;11.062;2023-12-20T03:43:33;97850.00;;;4.30
7389;BMP180;3735;50.136;11.062;2023-12-20T03:45:59;97852.00;;;4.30
7389;BMP180;3735;50.136;11.062;2023-12-20T03:48:25;97836.00;;;4.30
7389;BMP180;3735;50.136;11.062;2023-12-20T03:50:51;97850.00;;;4.30
7389;BMP180;3735;50.136;11.062;2023-12-20T03:53:17;97840.00;;;4.30
7389;BMP180;3735;50.136;11.062;2023-12-20T03:55:43;97844.00;;;4.30
7389;BMP180;3735;50.136;11.062;2023-12-20T03:58:09;97853.00;;;4.40
7389;BMP180;3735;50.136;11.062;2023-12-20T04:00:35;97845.00;;;4.30
7389;BMP180;3735;50.136;11.062;2023-12-20T04:03:01;97833.00;;;4.30
7389;BMP180;3735;50.136;11.062;2023-12-20T04:05:27;97850.00;;;4.30
7389;BMP180;3735;50.136;11.062;2023-12-20T04:07:52;97842.00;;;4.30
7389;BMP180;3735;50.136;11.062;2023-12-20T04:10:18;97848.00;;;4.20
7389;BMP180;3735;50.136;11.062;2023-12-20T04:12:44;97849.00;;;4.30
7389;BMP180;3735;50.136;11.062;2023-12-20T04:15:10;97858.00;;;4.30
7389;BMP180;3735;50.136;11.062;2023-12-20T04:17:37;97850.00;;;4.20
7389;BMP180;3735;50.136;11.062;2023-12-20T04:20:04;97850.00;;;4.30
7389;BMP180;3735;50.136;11.062;2023-12-20T04:22:29;97857.00;;;4.20
7389;BMP180;3735;50.136;11.062;2023-12-20T04:24:55;97864.00;;;4.20
7389;BMP180;3735;50.136;11.062;2023-12-20T04:27:21;97862.00;;;4.20
7389;BMP180;3735;50.136;11.062;2023-12-20T04:29:47;97874.00;;;4.20
7389;BMP180;3735;50.136;11.062;2023-12-20T04:32:13;97865.00;;;4.20
7389;BMP180;3735;50.136;11.062;2023-12-20T04:34:39;97856.00;;;4.20
7389;BMP180;3735;50.136;11.062;2023-12-20T04:37:04;97862.00;;;4.20
7389;BMP180;3735;50.136;11.062;2023-12-20T04:39:30;97860.00;;;4.20
7389;BMP180;3735;50.136;11.062;2023-12-20T04:41:56;97844.00;;;4.20
7389;BMP180;3735;50.136;11.062;2023-12-20T04:44:27;97868.00;;;4.20
7389;BMP180;3735;50.136;11.062;2023-12-20T04:46:53;97850.00;;;4.20
7389;BMP180;3735;50.136;11.062;2023-12-20T04:49:18;97843.00;;;4.20
7389;BMP180;3735;50.136;11.062;2023-12-20T04:51:44;97847.00;;;4.20
7389;BMP180;3735;50.136;11.062;2023-12-20T04:54:10;97844.00;;;4.20
7389;BMP180;3735;50.136;11.062;2023-12-20T04:56:36;97847.00;;;4.30
7389;BMP180;3735;50.136;11.062;2023-12-20T04:59:02;97853.00;;;4.30
7389;BMP180;3735;50.136;11.062;2023-12-20T05:01:28;97847.00;;;4.20
7389;BMP180;3735;50.136;11.062;2023-12-20T05:03:53;97837.00;;;4.30
7389;BMP180;3735;50.136;11.062;2023-12-20T05:06:19;97846.00;;;4.30
7389;BMP180;3735;50.136;11.062;2023-12-20T05:08:45;97852.00;;;4.30
7389;BMP180;3735;50.136;11.062;2023-12-20T05:11:11;97859.00;;;4.30
7389;BMP180;3735;50.136;11.062;2023-12-20T05:13:39;97853.00;;;4.30
7389;BMP180;3735;50.136;11.062;2023-12-20T05:16:05;97856.00;;;4.40
7389;BMP180;3735;50.136;11.062;2023-12-20T05:18:31;97852.00;;;4.30
7389;BMP180;3735;50.136;11.062;2023-12-20T05:20:57;97831.00;;;4.40
7389;BMP180;3735;50.136;11.062;2023-12-20T05:23:23;97847.00;;;4.30
7389;BMP180;3735;50.136;11.062;2023-12-20T05:25:49;97859.00;;;4.30
7389;BMP180;3735;50.136;11.062;2023-12-20T05:28:15;97855.00;;;4.40
7389;BMP180;3735;50.136;11.062;2023-12-20T05:30:44;97867.00;;;4.40
7389;BMP180;3735;50.136;11.062;2023-12-20T05:33:10;97861.00;;;4.30
7389;BMP180;3735;50.136;11.062;2023-12-20T05:35:36;97871.00;;;4.40
7389;BMP180;3735;50.136;11.062;2023-12-20T05:38:01;97868.00;;;4.40
7389;BMP180;3735;50.136;11.062;2023-12-20T05:40:27;97867.00;;;4.30
7389;BMP180;3735;50.136;11.062;2023-12-20T05:42:54;97877.00;;;4.30
7389;BMP180;3735;50.136;11.062;2023-12-20T05:45:20;97884.00;;;4.30
7389;BMP180;3735;50.136;11.062;2023-12-20T05:47:45;97881.00;;;4.30
7389;BMP180;3735;50.136;11.062;2023-12-20T05:50:14;97882.00;;;3.90
7389;BMP180;3735;50.136;11.062;2023-12-20T05:52:39;97892.00;;;4.30
7389;BMP180;3735;50.136;11.062;2023-12-20T05:55:06;97883.00;;;4.30
7389;BMP180;3735;50.136;11.062;2023-12-20T05:57:31;97903.00;;;4.40
7389;BMP180;3735;50.136;11.062;2023-12-20T05:59:58;97882.00;;;4.30
7389;BMP180;3735;50.136;11.062;2023-12-20T06:02:23;97880.00;;;4.40
7389;BMP180;3735;50.136;11.062;2023-12-20T06:04:49;97887.00;;;4.30
7389;BMP180;3735;50.136;11.062;2023-12-20T06:07:16;97875.00;;;4.40
7389;BMP180;3735;50.136;11.062;2023-12-20T06:09:42;97895.00;;;4.40
7389;BMP180;3735;50.136;11.062;2023-12-20T06:12:07;97889.00;;;4.40
7389;BMP180;3735;50.136;11.062;2023-12-20T06:14:36;97890.00;;;4.20
7389;BMP180;3735;50.136;11.062;2023-12-20T06:17:02;97878.00;;;4.40
7389;BMP180;3735;50.136;11.062;2023-12-20T06:19:28;97903.00;;;4.30
7389;BMP180;3735;50.136;11.062;2023-12-20T06:21:54;97903.00;;;4.40
7389;BMP180;3735;50.136;11.062;2023-12-20T06:24:20;97909.00;;;4.40
7389;BMP180;3735;50.136;11.062;2023-12-20T06:26:47;97905.00;;;4.40
7389;BMP180;3735;50.136;11.062;2023-12-20T06:29:13;97912.00;;;4.40
7389;BMP180;3735;50.136;11.062;2023-12-20T06:31:38;97909.00;;;4.40
7389;BMP180;3735;50.136;11.062;2023-12-20T06:34:04;97922.00;;;4.40
7389;BMP180;3735;50.136;11.062;2023-12-20T06:36:30;97924.00;;;4.40
7389;BMP180;3735;50.136;11.062;2023-12-20T06:38:56;97916.00;;;4.40
7389;BMP180;3735;50.136;11.062;2023-12-20T06:41:21;97926.00;;;4.40
7389;BMP180;3735;50.136;11.062;2023-12-20T06:43:50;97929.00;;;4.40
7389;BMP180;3735;50.136;11.062;2023-12-20T06:46:17;97932.00;;;4.40
7389;BMP180;3735;50.136;11.062;2023-12-20T06:48:42;97934.00;;;4.40
7389;BMP180;3735;50.136;11.062;2023-12-20T06:51:16;97933.00;;;4.40
7389;BMP180;3735;50.136;11.062;2023-12-20T06:53:42;97959.00;;;4.40
7389;BMP180;3735;50.136;11.062;2023-12-20T06:56:10;97960.00;;;4.40
7389;BMP180;3735;50.136;11.062;2023-12-20T06:58:37;97961.00;;;4.40
7389;BMP180;3735;50.136;11.062;2023-12-20T07:01:03;97959.00;;;4.40
7389;BMP180;3735;50.136;11.062;2023-12-20T07:03:30;97951.00;;;4.40
7389;BMP180;3735;50.136;11.062;2023-12-20T07:05:55;97943.00;;;4.50
7389;BMP180;3735;50.136;11.062;2023-12-20T07:08:21;97955.00;;;4.30
7389;BMP180;3735;50.136;11.062;2023-12-20T07:10:47;97971.00;;;4.20
7389;BMP180;3735;50.136;11.062;2023-12-20T07:13:13;97975.00;;;4.10
7389;BMP180;3735;50.136;11.062;2023-12-20T07:15:39;97959.00;;;4.00
7389;BMP180;3735;50.136;11.062;2023-12-20T07:18:05;97977.00;;;4.00
7389;BMP180;3735;50.136;11.062;2023-12-20T07:20:32;97977.00;;;4.00
7389;BMP180;3735;50.136;11.062;2023-12-20T07:22:58;97985.00;;;4.10
7389;BMP180;3735;50.136;11.062;2023-12-20T07:25:24;97990.00;;;4.10
7389;BMP180;3735;50.136;11.062;2023-12-20T07:27:50;97998.00;;;4.10
7389;BMP180;3735;50.136;11.062;2023-12-20T07:30:16;97997.00;;;4.10
7389;BMP180;3735;50.136;11.062;2023-12-20T07:32:41;98000.00;;;4.10
7389;BMP180;3735;50.136;11.062;2023-12-20T07:35:07;97992.00;;;4.20
7389;BMP180;3735;50.136;11.062;2023-12-20T07:37:33;97993.00;;;4.10
7389;BMP180;3735;50.136;11.062;2023-12-20T07:39:59;97997.00;;;4.10
7389;BMP180;3735;50.136;11.062;2023-12-20T07:42:25;98001.00;;;4.10
7389;BMP180;3735;50.136;11.062;2023-12-20T07:44:51;98000.00;;;4.00
7389;BMP180;3735;50.136;11.062;2023-12-20T07:47:16;98004.00;;;4.10
7389;BMP180;3735;50.136;11.062;2023-12-20T07:49:49;98003.00;;;4.10
7389;BMP180;3735;50.136;11.062;2023-12-20T07:52:18;98009.00;;;4.10
7389;BMP180;3735;50.136;11.062;2023-12-20T07:54:45;98011.00;;;4.00
7389;BMP180;3735;50.136;11.062;2023-12-20T07:57:11;98012.00;;;4.00
7389;BMP180;3735;50.136;11.062;2023-12-20T07:59:37;98002.00;;;4.10
7389;BMP180;3735;50.136;11.062;2023-12-20T08:02:03;98014.00;;;4.20
7389;BMP180;3735;50.136;11.062;2023-12-20T08:04:35;98012.00;;;4.20
7389;BMP180;3735;50.136;11.062;2023-12-20T08:07:01;98007.00;;;4.30
7389;BMP180;3735;50.136;11.062;2023-12-20T08:09:27;97997.00;;;4.30
7389;BMP180;3735;50.136;11.062;2023-12-20T08:11:53;98002.00;;;4.30
7389;BMP180;3735;50.136;11.062;2023-12-20T08:14:19;97988.00;;;4.30
7389;BMP180;3735;50.136;11.062;2023-12-20T08:16:45;97999.00;;;4.30
7389;BMP180;3735;50.136;11.062;2023-12-20T08:19:10;98000.00;;;4.30
7389;BMP180;3735;50.136;11.062;2023-12-20T08:21:36;97994.00;;;4.20
7389;BMP180;3735;50.136;11.062;2023-12-20T08:24:02;98000.00;;;4.20
7389;BMP180;3735;50.136;11.062;2023-12-20T08:26:28;98003.00;;;4.20
7389;BMP180;3735;50.136;11.062;2023-12-20T08:28:54;97999.00;;;4.20
7389;BMP180;3735;50.136;11.062;2023-12-20T08:31:20;98000.00;;;4.20
7389;BMP180;3735;50.136;11.062;2023-12-20T08:33:48;97996.00;;;4.10
7389;BMP180;3735;50.136;11.062;2023-12-20T08:36:14;97989.00;;;4.10
7389;BMP180;3735;50.136;11.062;2023-12-20T08:38:40;97986.00;;;4.00
7389;BMP180;3735;50.136;11.062;2023-12-20T08:41:07;97991.00;;;4.00
7389;BMP180;3735;50.136;11.062;2023-12-20T08:43:34;98004.00;;;4.20
7389;BMP180;3735;50.136;11.062;2023-12-20T08:46:01;98006.00;;;4.20
7389;BMP180;3735;50.136;11.062;2023-12-20T08:48:28;98013.00;;;4.40
7389;BMP180;3735;50.136;11.062;2023-12-20T08:50:54;98021.00;;;4.60
7389;BMP180;3735;50.136;11.062;2023-12-20T08:53:20;98025.00;;;4.60
7389;BMP180;3735;50.136;11.062;2023-12-20T08:55:47;98027.00;;;4.80
7389;BMP180;3735;50.136;11.062;2023-12-20T08:58:13;98031.00;;;4.90
7389;BMP180;3735;50.136;11.062;2023-12-20T09:00:39;98027.00;;;4.90
7389;BMP180;3735;50.136;11.062;2023-12-20T09:03:05;98033.00;;;4.90
7389;BMP180;3735;50.136;11.062;2023-12-20T09:05:31;98037.00;;;4.90
7389;BMP180;3735;50.136;11.062;2023-12-20T09:07:57;98030.00;;;5.00
7389;BMP180;3735;50.136;11.062;2023-12-20T09:10:23;98031.00;;;5.00
7389;BMP180;3735;50.136;11.062;2023-12-20T09:12:53;98034.00;;;5.00
7389;BMP180;3735;50.136;11.062;2023-12-20T09:15:26;98044.00;;;5.00
7389;BMP180;3735;50.136;11.062;2023-12-20T09:17:53;98041.00;;;5.10
7389;BMP180;3735;50.136;11.062;2023-12-20T09:20:19;98040.00;;;5.20
7389;BMP180;3735;50.136;11.062;2023-12-20T09:22:46;98042.00;;;5.20
7389;BMP180;3735;50.136;11.062;2023-12-20T09:25:12;98047.00;;;5.30
7389;BMP180;3735;50.136;11.062;2023-12-20T09:27:39;98050.00;;;5.50
7389;BMP180;3735;50.136;11.062;2023-12-20T09:30:06;98036.00;;;5.60
7389;BMP180;3735;50.136;11.062;2023-12-20T09:32:32;98039.00;;;5.70
7389;BMP180;3735;50.136;11.062;2023-12-20T09:34:58;98042.00;;;5.70
7389;BMP180;3735;50.136;11.062;2023-12-20T09:37:27;98049.00;;;5.70
7389;BMP180;3735;50.136;11.062;2023-12-20T09:39:54;98052.00;;;5.80
7389;BMP180;3735;50.136;11.062;2023-12-20T09:42:56;98063.00;;;5.70
7389;BMP180;3735;50.136;11.062;2023-12-20T09:45:25;98067.00;;;5.60
7389;BMP180;3735;50.136;11.062;2023-12-20T09:47:54;98068.00;;;5.50
7389;BMP180;3735;50.136;11.062;2023-12-20T09:50:21;98060.00;;;5.40
7389;BMP180;3735;50.136;11.062;2023-12-20T09:52:53;98055.00;;;5.50
7389;BMP180;3735;50.136;11.062;2023-12-20T09:55:20;98056.00;;;5.40
7389;BMP180;3735;50.136;11.062;2023-12-20T09:57:48;98050.00;;;5.40
7389;BMP180;3735;50.136;11.062;2023-12-20T10:00:15;98049.00;;;5.50
7389;BMP180;3735;50.136;11.062;2023-12-20T10:02:54;98051.00;;;5.30
7389;BMP180;3735;50.136;11.062;2023-12-20T10:05:30;98033.00;;;5.40
7389;BMP180;3735;50.136;11.062;2023-12-20T10:07:57;98040.00;;;5.30
7389;BMP180;3735;50.136;11.062;2023-12-20T10:10:24;98030.00;;;5.30
7389;BMP180;3735;50.136;11.062;2023-12-20T10:13:08;98032.00;;;5.40
7389;BMP180;3735;50.136;11.062;2023-12-20T10:15:35;98032.00;;;5.30
7389;BMP180;3735;50.136;11.062;2023-12-20T10:18:05;98041.00;;;5.30
7389;BMP180;3735;50.136;11.062;2023-12-20T10:20:31;98035.00;;;5.20
7389;BMP180;3735;50.136;11.062;2023-12-20T10:23:00;98021.00;;;5.30
7389;BMP180;3735;50.136;11.062;2023-12-20T10:25:27;98026.00;;;5.30
7389;BMP180;3735;50.136;11.062;2023-12-20T10:28:15;98029.00;;;5.20
7389;BMP180;3735;50.136;11.062;2023-12-20T10:30:44;98025.00;;;5.10
7389;BMP180;3735;50.136;11.062;2023-12-20T10:33:10;98015.00;;;4.90
7389;BMP180;3735;50.136;11.062;2023-12-20T10:35:39;98022.00;;;5.00
7389;BMP180;3735;50.136;11.062;2023-12-20T10:38:06;98003.00;;;5.00
7389;BMP180;3735;50.136;11.062;2023-12-20T10:40:36;98007.00;;;5.10
7389;BMP180;3735;50.136;11.062;2023-12-20T10:43:03;98002.00;;;5.10
7389;BMP180;3735;50.136;11.062;2023-12-20T10:45:29;98004.00;;;5.20
7389;BMP180;3735;50.136;11.062;2023-12-20T10:47:57;97995.00;;;5.10
7389;BMP180;3735;50.136;11.062;2023-12-20T10:50:26;97985.00;;;5.20
7389;BMP180;3735;50.136;11.062;2023-12-20T10:52:52;97982.00;;;5.20
7389;BMP180;3735;50.136;11.062;2023-12-20T10:55:22;97986.00;;;5.30
7389;BMP180;3735;50.136;11.062;2023-12-20T10:58:16;97978.00;;;5.40
7389;BMP180;3735;50.136;11.062;2023-12-20T11:00:45;97981.00;;;5.50
7389;BMP180;3735;50.136;11.062;2023-12-20T11:03:15;97984.00;;;5.50
7389;BMP180;3735;50.136;11.062;2023-12-20T11:06:05;97984.00;;;5.40
7389;BMP180;3735;50.136;11.062;2023-12-20T11:08:49;97991.00;;;5.20
7389;BMP180;3735;50.136;11.062;2023-12-20T11:11:37;97985.00;;;5.10
7389;BMP180;3735;50.136;11.062;2023-12-20T11:14:27;97987.00;;;5.20
7389;BMP180;3735;50.136;11.062;2023-12-20T11:17:09;97990.00;;;5.00
7389;BMP180;3735;50.136;11.062;2023-12-20T11:22:20;97985.00;;;5.00
7389;BMP180;3735;50.136;11.062;2023-12-20T11:24:48;97969.00;;;5.00
7389;BMP180;3735;50.136;11.062;2023-12-20T11:27:14;97995.00;;;5.00
7389;BMP180;3735;50.136;11.062;2023-12-20T11:29:41;98000.00;;;5.00
7389;BMP180;3735;50.136;11.062;2023-12-20T11:37:36;98006.00;;;5.00
7389;BMP180;3735;50.136;11.062;2023-12-20T11:40:08;97988.00;;;5.00
7389;BMP180;3735;50.136;11.062;2023-12-20T11:42:48;97996.00;;;5.00
7389;BMP180;3735;50.136;11.062;2023-12-20T11:45:18;97967.00;;;5.00
7389;BMP180;3735;50.136;11.062;2023-12-20T11:47:48;97991.00;;;5.00
7389;BMP180;3735;50.136;11.062;2023-12-20T11:50:16;97986.00;;;5.00
7389;BMP180;3735;50.136;11.062;2023-12-20T11:52:42;97992.00;;;5.00
7389;BMP180;3735;50.136;11.062;2023-12-20T11:55:08;97980.00;;;5.10
7389;BMP180;3735;50.136;11.062;2023-12-20T11:57:35;97979.00;;;5.10
7389;BMP180;3735;50.136;11.062;2023-12-20T12:00:03;97981.00;;;5.10
7389;BMP180;3735;50.136;11.062;2023-12-20T12:02:30;97986.00;;;5.00
7389;BMP180;3735;50.136;11.062;2023-12-20T12:04:56;97986.00;;;5.00
7389;BMP180;3735;50.136;11.062;2023-12-20T12:07:24;97974.00;;;5.10
7389;BMP180;3735;50.136;11.062;2023-12-20T12:09:50;97963.00;;;5.10
7389;BMP180;3735;50.136;11.062;2023-12-20T12:12:18;97977.00;;;5.10
7389;BMP180;3735;50.136;11.062;2023-12-20T12:14:45;97964.00;;;5.10
7389;BMP180;3735;50.136;11.062;2023-12-20T12:17:13;97948.00;;;5.20
7389;BMP180;3735;50.136;11.062;2023-12-20T12:19:43;97963.00;;;5.20
7389;BMP180;3735;50.136;11.062;2023-12-20T12:22:12;97947.00;;;5.20
7389;BMP180;3735;50.136;11.062;2023-12-20T12:24:44;97946.00;;;5.20
7389;BMP180;3735;50.136;11.062;2023-12-20T12:27:12;97957.00;;;5.20
7389;BMP180;3735;50.136;11.062;2023-12-20T12:29:43;97939.00;;;5.40
7389;BMP180;3735;50.136;11.062;2023-12-20T12:32:25;97946.00;;;5.40
7389;BMP180;3735;50.136;11.062;2023-12-20T12:34:51;97930.00;;;5.40
7389;BMP180;3735;50.136;11.062;2023-12-20T12:37:17;97922.00;;;5.50
7389;BMP180;3735;50.136;11.062;2023-12-20T12:39:43;97913.00;;;5.60
7389;BMP180;3735;50.136;11.062;2023-12-20T12:42:09;97921.00;;;5.70
7389;BMP180;3735;50.136;11.062;2023-12-20T12:44:35;97926.00;;;5.70
7389;BMP180;3735;50.136;11.062;2023-12-20T12:47:00;97919.00;;;5.80
7389;BMP180;3735;50.136;11.062;2023-12-20T12:49:29;97929.00;;;5.80
7389;BMP180;3735;50.136;11.062;2023-12-20T12:51:54;97926.00;;;5.80
7389;BMP180;3735;50.136;11.062;2023-12-20T12:54:24;97924.00;;;5.60
7389;BMP180;3735;50.136;11.062;2023-12-20T12:56:50;97932.00;;;5.70
7389;BMP180;3735;50.136;11.062;2023-12-20T12:59:16;97920.00;;;5.70
7389;BMP180;3735;50.136;11.062;2023-12-20T13:01:42;97917.00;;;5.50
7389;BMP180;3735;50.136;11.062;2023-12-20T13:04:08;97900.00;;;5.60
7389;BMP180;3735;50.136;11.062;2023-12-20T13:06:39;97929.00;;;5.60
7389;BMP180;3735;50.136;11.062;2023-12-20T13:09:06;97917.00;;;5.50
7389;BMP180;3735;50.136;11.062;2023-12-20T13:11:33;97917.00;;;5.50
7389;BMP180;3735;50.136;11.062;2023-12-20T13:13:59;97922.00;;;5.50
7389;BMP180;3735;50.136;11.062;2023-12-20T13:16:25;97920.00;;;5.40
7389;BMP180;3735;50.136;11.062;2023-12-20T13:18:51;97914.00;;;5.60
7389;BMP180;3735;50.136;11.062;2023-12-20T13:21:17;97913.00;;;5.60
7389;BMP180;3735;50.136;11.062;2023-12-20T13:23:43;97907.00;;;5.40
7389;BMP180;3735;50.136;11.062;2023-12-20T13:26:09;97909.00;;;5.40
7389;BMP180;3735;50.136;11.062;2023-12-20T13:28:35;97904.00;;;5.40
7389;BMP180;3735;50.136;11.062;2023-12-20T13:31:01;97908.00;;;5.30
7389;BMP180;3735;50.136;11.062;2023-12-20T13:33:26;97898.00;;;5.30
7389;BMP180;3735;50.136;11.062;2023-12-20T13:35:52;97869.00;;;5.30
7389;BMP180;3735;50.136;11.062;2023-12-20T13:38:18;97890.00;;;5.40
7389;BMP180;3735;50.136;11.062;2023-12-20T13:40:44;97895.00;;;5.40
7389;BMP180;3735;50.136;11.062;2023-12-20T13:43:10;97887.00;;;5.40
7389;BMP180;3735;50.136;11.062;2023-12-20T13:45:38;97885.00;;;5.30
7389;BMP180;3735;50.136;11.062;2023-12-20T13:48:04;97888.00;;;5.40
7389;BMP180;3735;50.136;11.062;2023-12-20T13:50:30;97878.00;;;5.40
7389;BMP180;3735;50.136;11.062;2023-12-20T13:52:56;97888.00;;;5.40
7389;BMP180;3735;50.136;11.062;2023-12-20T13:55:22;97877.00;;;5.40
7389;BMP180;3735;50.136;11.062;2023-12-20T13:57:51;97866.00;;;5.40
7389;BMP180;3735;50.136;11.062;2023-12-20T14:00:19;97865.00;;;5.40
7389;BMP180;3735;50.136;11.062;2023-12-20T14:02:46;97866.00;;;5.40
7389;BMP180;3735;50.136;11.062;2023-12-20T14:05:11;97865.00;;;5.40
7389;BMP180;3735;50.136;11.062;2023-12-20T14:07:39;97857.00;;;5.40
7389;BMP180;3735;50.136;11.062;2023-12-20T14:10:05;97864.00;;;5.40
7389;BMP180;3735;50.136;11.062;2023-12-20T14:12:34;97861.00;;;5.40
7389;BMP180;3735;50.136;11.062;2023-12-20T14:15:02;97863.00;;;5.30
7389;BMP180;3735;50.136;11.062;2023-12-20T14:17:28;97866.00;;;5.40
7389;BMP180;3735;50.136;11.062;2023-12-20T14:19:53;97856.00;;;5.30
7389;BMP180;3735;50.136;11.062;2023-12-20T14:22:20;97860.00;;;5.30
7389;BMP180;3735;50.136;11.062;2023-12-20T14:24:46;97849.00;;;5.40
7389;BMP180;3735;50.136;11.062;2023-12-20T14:27:12;97848.00;;;5.30
7389;BMP180;3735;50.136;11.062;2023-12-20T14:29:38;97856.00;;;5.40
7389;BMP180;3735;50.136;11.062;2023-12-20T14:32:05;97850.00;;;5.40
7389;BMP180;3735;50.136;11.062;2023-12-20T14:34:31;97857.00;;;5.40
7389;BMP180;3735;50.136;11.062;2023-12-20T14:36:57;97860.00;;;5.40
7389;BMP180;3735;50.136;11.062;2023-12-20T14:39:23;97860.00;;;5.40
7389;BMP180;3735;50.136;11.062;2023-12-20T14:41:49;97860.00;;;5.40